Time;durP1;ratioP1;P1;durP2;ratioP2;P2;SDS_P1;SDS_P2;PMS_P1;PMS_P2;Temp;Humidity;BMP_temperature;BMP_pressure;BME280_temperature;BME280_humidity;BME280_pressure;Samples;Min_cycle;Max_cycle;Signal;HPM_P1;HPM_P2
2021/07/11 00:01:22;;;;;;;11.10;10.07;;;20.30;99.90;;;;;;5076291;28;20929;-66
2021/07/11 00:03:50;;;;;;;11.13;10.03;;;20.30;99.90;;;;;;5076485;28;20469;-67
2021/07/11 00:06:17;;;;;;;10.93;9.93;;;20.20;99.90;;;;;;5075989;28;20462;-67
2021/07/11 00:08:44;;;;;;;10.90;9.90;;;20.20;99.90;;;;;;5076118;28;20552;-67
2021/07/11 00:11:10;;;;;;;10.30;9.00;;;20.20;99.90;;;;;;5075963;28;20527;-67
2021/07/11 00:13:37;;;;;;;10.43;9.43;;;20.20;99.90;;;;;;5076117;28;20469;-68
2021/07/11 00:16:04;;;;;;;10.57;9.50;;;20.10;99.90;;;;;;5076432;28;20454;-67
2021/07/11 00:18:31;;;;;;;10.23;9.13;;;20.10;99.90;;;;;;5076206;28;20458;-67
2021/07/11 00:20:59;;;;;;;10.83;9.33;;;20.10;99.90;;;;;;5076072;28;20796;-68
2021/07/11 00:23:26;;;;;;;12.70;8.87;;;20.00;99.90;;;;;;5076260;28;20485;-68
2021/07/11 00:25:55;;;;;;;11.33;9.93;;;20.00;99.90;;;;;;5075957;28;20461;-67
2021/07/11 00:28:22;;;;;;;10.77;9.60;;;20.00;99.90;;;;;;5075303;28;21011;-67
2021/07/11 00:30:48;;;;;;;11.87;9.07;;;19.90;99.90;;;;;;5075121;28;20458;-67
2021/07/11 00:33:15;;;;;;;9.70;8.70;;;19.90;99.90;;;;;;5075887;28;20512;-67
2021/07/11 00:35:42;;;;;;;9.77;8.87;;;19.90;99.90;;;;;;5075612;28;20911;-67
2021/07/11 00:38:10;;;;;;;10.13;9.10;;;19.90;99.90;;;;;;5075242;28;20508;-67
2021/07/11 00:40:36;;;;;;;10.33;9.33;;;19.90;99.90;;;;;;5076363;28;20771;-67
2021/07/11 00:43:06;;;;;;;9.90;8.90;;;19.80;99.90;;;;;;5075527;28;20516;-67
2021/07/11 00:45:33;;;;;;;10.23;9.20;;;19.80;99.90;;;;;;5075159;28;20485;-67
2021/07/11 00:47:59;;;;;;;9.43;8.53;;;19.80;99.90;;;;;;5075877;28;20801;-67
2021/07/11 00:50:26;;;;;;;9.47;8.30;;;19.70;99.90;;;;;;5075463;28;20515;-67
2021/07/11 00:52:53;;;;;;;8.53;7.60;;;19.70;99.90;;;;;;5075940;28;20763;-67
2021/07/11 00:55:23;;;;;;;9.53;8.63;;;19.70;99.90;;;;;;5075273;28;20454;-67
2021/07/11 00:57:49;;;;;;;10.47;9.37;;;19.70;99.90;;;;;;5074747;28;20462;-67
2021/07/11 01:00:17;;;;;;;9.93;8.93;;;19.70;99.90;;;;;;5075982;28;20481;-67
2021/07/11 01:02:54;;;;;;;9.20;8.23;;;19.60;99.90;;;;;;5075737;28;20466;-68
2021/07/11 01:05:23;;;;;;;8.53;7.73;;;19.60;99.90;;;;;;5075309;28;20910;-68
2021/07/11 01:07:54;;;;;;;8.60;7.70;;;19.60;99.90;;;;;;5075214;28;20520;-68
2021/07/11 01:10:27;;;;;;;9.50;8.27;;;19.60;99.90;;;;;;5075240;28;20458;-67
2021/07/11 01:12:56;;;;;;;9.00;8.10;;;19.60;99.90;;;;;;5075284;28;20489;-67
2021/07/11 01:15:24;;;;;;;9.37;7.90;;;19.50;99.90;;;;;;5075114;28;20523;-67
2021/07/11 01:17:54;;;;;;;9.30;8.40;;;19.50;99.90;;;;;;5075033;28;20893;-67
2021/07/11 01:20:36;;;;;;;9.10;7.90;;;19.60;99.90;;;;;;5076333;28;20523;-67
2021/07/11 01:23:07;;;;;;;8.80;8.00;;;19.50;99.90;;;;;;5076830;28;20476;-67
2021/07/11 01:25:39;;;;;;;8.03;7.30;;;19.50;99.90;;;;;;5075600;28;20461;-67
2021/07/11 01:28:07;;;;;;;8.97;8.07;;;19.50;99.90;;;;;;5074830;28;20470;-67
2021/07/11 01:30:37;;;;;;;9.27;8.17;;;19.50;99.90;;;;;;5074902;28;20454;-67
2021/07/11 01:33:06;;;;;;;8.37;7.57;;;19.50;99.90;;;;;;5075088;28;20541;-67
2021/07/11 01:35:34;;;;;;;9.50;8.10;;;19.50;99.90;;;;;;5074849;28;20465;-67
2021/07/11 01:38:01;;;;;;;9.20;8.30;;;19.50;99.90;;;;;;5074474;28;20519;-67
2021/07/11 01:40:30;;;;;;;9.17;8.27;;;19.40;99.90;;;;;;5074206;28;20461;-67
2021/07/11 01:42:59;;;;;;;8.80;7.90;;;19.40;99.90;;;;;;5074937;28;20519;-68
2021/07/11 01:45:25;;;;;;;8.93;8.13;;;19.40;1.00;;;;;;5075170;28;20493;-67
2021/07/11 01:47:54;;;;;;;9.23;8.30;;;19.40;1.00;;;;;;5074295;28;20462;-67
2021/07/11 01:50:22;;;;;;;10.70;7.70;;;19.40;1.00;;;;;;5075202;28;20468;-67
2021/07/11 01:52:50;;;;;;;9.53;8.53;;;19.40;1.00;;;;;;5074831;28;20602;-67
2021/07/11 01:55:17;;;;;;;10.73;7.83;;;19.30;1.00;;;;;;5075369;28;20469;-67
2021/07/11 01:57:49;;;;;;;8.73;7.83;;;19.30;1.00;;;;;;5074619;28;20462;-67
2021/07/11 02:00:19;;;;;;;9.30;8.23;;;19.30;1.00;;;;;;5074507;28;20485;-67
2021/07/11 02:02:47;;;;;;;9.30;8.40;;;19.30;1.00;;;;;;5074943;28;20833;-67
2021/07/11 02:05:15;;;;;;;9.60;8.00;;;19.30;1.00;;;;;;5074695;28;20465;-67
2021/07/11 02:07:42;;;;;;;8.77;7.93;;;19.30;1.00;;;;;;5074151;28;20466;-68
2021/07/11 02:10:11;;;;;;;8.50;7.67;;;19.20;1.00;;;;;;5074467;28;20803;-67
2021/07/11 02:12:44;;;;;;;9.23;8.33;;;19.20;1.00;;;;;;5074536;28;20531;-67
2021/07/11 02:15:12;;;;;;;8.67;7.97;;;19.20;1.00;;;;;;5074582;28;20438;-67
2021/07/11 02:17:43;;;;;;;8.50;7.80;;;19.20;1.00;;;;;;5074567;28;20458;-67
2021/07/11 02:20:11;;;;;;;9.63;8.47;;;19.20;1.00;;;;;;5074506;28;20431;-67
2021/07/11 02:22:43;;;;;;;9.03;7.93;;;19.10;1.00;;;;;;5074761;28;20466;-67
2021/07/11 02:25:12;;;;;;;9.93;9.03;;;19.10;1.00;;;;;;5074464;28;20450;-67
2021/07/11 02:27:40;;;;;;;8.23;7.43;;;19.10;1.00;;;;;;5074243;28;20465;-67
2021/07/11 02:30:12;;;;;;;9.43;8.43;;;19.10;1.00;;;;;;5073906;28;20973;-67
2021/07/11 02:32:44;;;;;;;8.20;7.50;;;19.10;1.00;;;;;;5074304;28;20450;-67
2021/07/11 02:35:11;;;;;;;9.70;8.57;;;19.00;1.00;;;;;;5074335;28;20442;-67
2021/07/11 02:37:47;;;;;;;9.77;8.87;;;19.00;1.00;;;;;;5073827;28;20454;-67
2021/07/11 02:40:15;;;;;;;7.93;7.10;;;19.00;1.00;;;;;;5074695;28;20434;-67
2021/07/11 02:42:42;;;;;;;8.30;7.30;;;19.00;1.00;;;;;;5074006;28;20849;-67
2021/07/11 02:45:10;;;;;;;9.17;8.13;;;19.00;1.00;;;;;;5074077;28;20485;-67
2021/07/11 02:47:42;;;;;;;8.70;7.90;;;19.00;1.00;;;;;;5074219;28;21007;-67
2021/07/11 02:50:14;;;;;;;10.07;7.80;;;18.90;1.00;;;;;;5074089;28;20772;-67
2021/07/11 02:52:43;;;;;;;9.67;8.70;;;18.90;1.00;;;;;;5075852;28;20488;-67
2021/07/11 02:55:13;;;;;;;9.73;8.83;;;18.90;1.00;;;;;;5077807;28;20468;-68
2021/07/11 02:57:42;;;;;;;10.10;9.10;;;18.90;1.00;;;;;;5077292;28;20462;-68
2021/07/11 03:00:10;;;;;;;9.03;8.23;;;18.90;1.00;;;;;;5077798;28;20461;-67
2021/07/11 03:02:39;;;;;;;10.07;9.07;;;18.90;1.00;;;;;;5077666;28;20646;-67
2021/07/11 03:05:10;;;;;;;8.37;7.57;;;18.80;1.00;;;;;;5077546;28;20535;-67
2021/07/11 03:07:37;;;;;;;9.23;8.43;;;18.80;1.00;;;;;;5077297;28;20525;-67
2021/07/11 03:10:05;;;;;;;8.30;7.60;;;18.80;1.00;;;;;;5076961;28;20474;-67
2021/07/11 03:12:33;;;;;;;9.00;8.20;;;18.80;1.00;;;;;;5077015;28;20458;-67
2021/07/11 03:15:02;;;;;;;8.73;7.87;;;18.80;1.00;;;;;;5077160;28;20458;-67
2021/07/11 03:17:29;;;;;;;9.60;8.70;;;18.80;1.00;;;;;;5077074;28;20938;-67
2021/07/11 03:19:57;;;;;;;8.97;8.13;;;18.80;1.00;;;;;;5077383;28;20520;-67
2021/07/11 03:22:27;;;;;;;11.20;9.20;;;18.80;1.00;;;;;;5077207;28;20453;-67
2021/07/11 03:24:57;;;;;;;9.87;8.93;;;18.80;1.00;;;;;;5077180;28;20443;-67
2021/07/11 03:27:25;;;;;;;9.23;8.40;;;18.80;1.00;;;;;;5077114;28;20454;-67
2021/07/11 03:30:01;;;;;;;9.20;8.40;;;18.80;1.00;;;;;;5077001;28;20539;-70
2021/07/11 03:32:30;;;;;;;9.30;8.50;;;18.80;1.00;;;;;;5076901;28;20762;-67
2021/07/11 03:34:59;;;;;;;10.90;9.80;;;18.80;1.00;;;;;;5076803;28;20454;-67
2021/07/11 03:37:30;;;;;;;9.67;8.77;;;18.80;1.00;;;;;;5076875;28;20550;-67
2021/07/11 03:39:58;;;;;;;9.60;8.70;;;18.80;1.00;;;;;;5077012;28;20470;-67
2021/07/11 03:42:26;;;;;;;9.43;8.53;;;18.80;1.00;;;;;;5077029;28;20454;-67
2021/07/11 03:44:58;;;;;;;10.10;9.10;;;18.80;1.00;;;;;;5076665;28;20490;-67
2021/07/11 03:47:29;;;;;;;9.90;8.97;;;18.80;1.00;;;;;;5076835;28;20468;-67
2021/07/11 03:49:57;;;;;;;9.70;8.80;;;18.80;1.00;;;;;;5076532;28;20491;-67
2021/07/11 03:52:29;;;;;;;9.67;8.40;;;18.80;1.00;;;;;;5076289;28;20488;-67
2021/07/11 03:54:58;;;;;;;13.57;9.40;;;18.80;1.00;;;;;;5076991;28;20500;-67
2021/07/11 03:57:28;;;;;;;8.90;8.10;;;18.80;1.00;;;;;;5076814;28;20458;-67
2021/07/11 03:59:57;;;;;;;9.70;8.70;;;18.80;1.00;;;;;;5076465;28;20450;-68
2021/07/11 04:02:28;;;;;;;9.77;8.50;;;18.80;1.00;;;;;;5077114;28;20458;-67
2021/07/11 04:04:56;;;;;;;9.73;8.27;;;18.90;1.00;;;;;;5076375;28;20504;-67
2021/07/11 04:07:24;;;;;;;10.67;8.13;;;18.90;1.00;;;;;;5076197;28;20454;-68
2021/07/11 04:09:54;;;;;;;9.00;8.20;;;18.90;1.00;;;;;;5076314;28;20482;-67
2021/07/11 04:12:21;;;;;;;9.50;8.50;;;19.00;1.00;;;;;;5076195;28;20465;-67
2021/07/11 04:14:48;;;;;;;10.00;8.97;;;19.00;1.00;;;;;;5075844;28;20468;-67
2021/07/11 04:17:15;;;;;;;8.80;8.00;;;19.00;1.00;;;;;;5076224;28;20467;-67
2021/07/11 04:19:43;;;;;;;9.10;8.00;;;19.10;1.00;;;;;;5076247;28;20458;-67
2021/07/11 04:22:15;;;;;;;10.40;8.60;;;19.10;1.00;;;;;;5076100;28;20848;-67
2021/07/11 04:24:43;;;;;;;9.00;8.10;;;19.20;1.00;;;;;;5075661;28;20438;-67
2021/07/11 04:27:12;;;;;;;8.37;7.63;;;19.20;1.00;;;;;;5075909;28;20725;-67
2021/07/11 04:29:40;;;;;;;9.77;8.80;;;19.30;1.00;;;;;;5075876;28;20486;-67
2021/07/11 04:32:09;;;;;;;11.03;8.20;;;19.30;1.00;;;;;;5075524;28;20986;-67
2021/07/11 04:34:37;;;;;;;8.63;7.93;;;19.40;1.00;;;;;;5075425;28;20458;-67
2021/07/11 04:37:06;;;;;;;9.80;8.10;;;19.40;1.00;;;;;;5075862;28;20458;-67
2021/07/11 04:39:35;;;;;;;8.20;7.50;;;19.50;1.00;;;;;;5075805;28;20543;-68
2021/07/11 04:42:02;;;;;;;9.23;8.43;;;19.50;1.00;;;;;;5075545;28;20470;-68
2021/07/11 04:44:30;;;;;;;8.93;8.20;;;19.60;1.00;;;;;;5075354;28;20482;-68
2021/07/11 04:46:57;;;;;;;9.20;8.30;;;19.60;1.00;;;;;;5075485;28;20450;-68
2021/07/11 04:49:24;;;;;;;9.10;8.23;;;19.70;1.00;;;;;;5075587;28;20490;-68
2021/07/11 04:51:53;;;;;;;8.80;8.10;;;19.70;1.00;;;;;;5075421;28;20787;-68
2021/07/11 04:54:20;;;;;;;8.73;8.03;;;19.80;1.00;;;;;;5075350;28;20822;-68
2021/07/11 04:56:50;;;;;;;8.30;7.60;;;19.80;1.00;;;;;;5075462;28;20455;-68
2021/07/11 04:59:17;;;;;;;8.43;7.63;;;19.80;1.00;;;;;;5075195;28;20909;-67
2021/07/11 05:01:45;;;;;;;8.27;7.50;;;19.90;1.00;;;;;;5075167;28;20833;-68
2021/07/11 05:04:12;;;;;;;8.23;7.53;;;19.90;1.00;;;;;;5075297;28;20461;-68
2021/07/11 05:06:38;;;;;;;8.23;7.43;;;19.90;1.00;;;;;;5074863;28;20458;-68
2021/07/11 05:09:06;;;;;;;8.70;7.87;;;20.00;1.00;;;;;;5075725;28;20470;-67
2021/07/11 05:11:33;;;;;;;8.43;7.73;;;20.00;1.00;;;;;;5076438;28;20495;-68
2021/07/11 05:13:59;;;;;;;8.50;7.70;;;20.00;1.00;;;;;;5076565;28;20950;-67
2021/07/11 05:16:29;;;;;;;8.47;7.67;;;20.00;1.00;;;;;;5075192;28;20511;-67
2021/07/11 05:18:57;;;;;;;7.80;7.10;;;20.00;1.00;;;;;;5075001;28;20454;-67
2021/07/11 05:21:29;;;;;;;8.03;7.33;;;20.10;1.00;;;;;;5075044;28;20519;-67
2021/07/11 05:23:56;;;;;;;8.90;8.10;;;20.10;1.00;;;;;;5074927;28;20442;-67
2021/07/11 05:26:23;;;;;;;8.30;7.50;;;20.10;99.90;;;;;;5074852;28;20462;-68
2021/07/11 05:28:49;;;;;;;8.10;7.03;;;20.10;99.90;;;;;;5075187;28;20464;-68
2021/07/11 05:31:16;;;;;;;9.13;7.90;;;20.10;99.90;;;;;;5074873;28;20839;-67
2021/07/11 05:33:43;;;;;;;8.03;7.33;;;20.10;99.90;;;;;;5074929;28;20519;-68
2021/07/11 05:36:12;;;;;;;7.87;7.13;;;20.20;99.90;;;;;;5074810;28;20468;-68
2021/07/11 05:38:40;;;;;;;7.90;7.20;;;20.20;99.90;;;;;;5074442;28;20462;-68
2021/07/11 05:41:08;;;;;;;7.47;6.87;;;20.20;1.00;;;;;;5074553;28;20458;-68
2021/07/11 05:43:35;;;;;;;7.97;7.27;;;20.20;1.00;;;;;;5074790;28;20454;-68
2021/07/11 05:46:01;;;;;;;8.33;7.63;;;20.20;1.00;;;;;;5074349;28;20540;-68
2021/07/11 05:48:28;;;;;;;7.20;6.60;;;20.30;1.00;;;;;;5074566;28;20468;-68
2021/07/11 05:50:55;;;;;;;7.70;7.10;;;20.30;99.90;;;;;;5074812;28;20522;-68
2021/07/11 05:53:23;;;;;;;7.27;6.57;;;20.30;99.90;;;;;;5074918;28;20543;-68
2021/07/11 05:55:53;;;;;;;7.03;6.40;;;20.40;99.90;;;;;;5074799;28;20520;-68
2021/07/11 05:58:20;;;;;;;6.87;6.00;;;20.40;99.90;;;;;;5074895;28;20458;-67
2021/07/11 06:00:46;;;;;;;7.53;6.83;;;20.50;99.90;;;;;;5074573;28;20529;-68
2021/07/11 06:03:13;;;;;;;8.33;7.10;;;20.60;50.10;;;;;;5074391;28;20915;-68
2021/07/11 06:05:43;;;;;;;7.60;6.90;;;20.70;1.00;;;;;;5074771;28;20519;-68
2021/07/11 06:08:10;;;;;;;7.90;7.20;;;20.70;1.00;;;;;;5074522;28;20478;-68
2021/07/11 06:10:38;;;;;;;7.13;6.50;;;20.80;1.00;;;;;;5074542;28;20491;-68
2021/07/11 06:13:06;;;;;;;7.00;6.40;;;20.90;1.00;;;;;;5074306;28;20930;-68
2021/07/11 06:15:33;;;;;;;8.00;7.17;;;21.00;1.00;;;;;;5074743;28;20468;-68
2021/07/11 06:18:02;;;;;;;6.40;5.87;;;21.00;1.00;;;;;;5074546;28;20468;-68
2021/07/11 06:20:29;;;;;;;6.60;5.90;;;21.10;1.00;;;;;;5074442;28;20461;-68
2021/07/11 06:22:56;;;;;;;7.47;6.77;;;21.10;1.00;;;;;;5075245;28;20797;-68
2021/07/11 06:25:22;;;;;;;7.27;6.67;;;21.20;99.90;;;;;;5074424;28;20454;-68
2021/07/11 06:27:50;;;;;;;7.27;6.60;;;21.20;96.70;;;;;;5075621;28;20466;-68
2021/07/11 06:30:18;;;;;;;7.80;6.37;;;21.30;99.90;;;;;;5078142;28;20488;-68
2021/07/11 06:32:47;;;;;;;6.40;5.70;;;21.50;1.00;;;;;;5078402;28;20835;-68
2021/07/11 06:35:16;;;;;;;7.27;6.67;;;21.50;1.00;;;;;;5078133;28;20454;-68
2021/07/11 06:37:43;;;;;;;5.57;5.00;;;21.60;1.00;;;;;;5078126;28;20462;-68
2021/07/11 06:40:10;;;;;;;8.10;5.33;;;21.70;1.00;;;;;;5078174;28;20480;-68
2021/07/11 06:42:38;;;;;;;5.50;5.10;;;21.80;99.90;;;;;;5077919;28;20843;-68
2021/07/11 06:45:09;;;;;;;6.17;5.03;;;21.90;50.40;;;;;;5077630;28;20486;-68
2021/07/11 06:47:36;;;;;;;6.17;5.57;;;22.00;1.00;;;;;;5077896;28;20518;-68
2021/07/11 06:50:03;;;;;;;5.37;4.97;;;22.10;99.90;;;;;;5078074;28;21011;-68
2021/07/11 06:52:30;;;;;;;5.40;4.90;;;22.20;99.90;;;;;;5078455;28;20466;-68
2021/07/11 06:54:57;;;;;;;6.03;4.70;;;22.30;1.00;;;;;;5078252;28;20952;-69
2021/07/11 06:57:24;;;;;;;5.07;4.67;;;22.40;1.00;;;;;;5078048;28;20915;-68
2021/07/11 06:59:50;;;;;;;5.63;4.90;;;22.50;99.90;;;;;;5077654;28;20462;-68
2021/07/11 07:02:18;;;;;;;5.10;4.70;;;22.60;1.00;;;;;;5077783;28;20450;-68
2021/07/11 07:04:48;;;;;;;4.77;4.43;;;22.70;1.00;;;;;;5077636;28;20458;-68
2021/07/11 07:07:15;;;;;;;4.77;4.37;;;22.70;99.90;;;;;;5077281;28;20544;-68
2021/07/11 07:09:41;;;;;;;5.13;4.63;;;22.90;99.90;;;;;;5077605;28;20454;-68
2021/07/11 07:12:08;;;;;;;3.97;3.67;;;23.00;99.90;;;;;;5077608;28;20515;-68
2021/07/11 07:14:36;;;;;;;4.60;4.27;;;23.10;1.00;;;;;;5077405;28;20469;-68
2021/07/11 07:17:03;;;;;;;5.77;4.87;;;23.20;1.00;;;;;;5077210;28;20987;-68
2021/07/11 07:19:31;;;;;;;4.87;4.40;;;23.20;1.00;;;;;;5077966;28;20454;-68
2021/07/11 07:21:58;;;;;;;4.63;4.30;;;23.40;1.00;;;;;;5077066;28;20980;-68
2021/07/11 07:24:24;;;;;;;4.20;3.80;;;23.40;1.00;;;;;;5077331;28;20454;-68
2021/07/11 07:26:51;;;;;;;4.60;3.80;;;23.50;1.00;;;;;;5077552;28;20836;-68
2021/07/11 07:29:18;;;;;;;5.80;4.50;;;23.60;1.00;;;;;;5077335;28;20516;-68
2021/07/11 07:31:47;;;;;;;3.70;3.40;;;23.60;1.00;;;;;;5076921;28;20501;-68
2021/07/11 07:34:14;;;;;;;3.93;3.50;;;23.70;99.90;;;;;;5077262;28;20918;-68
2021/07/11 07:36:42;;;;;;;3.97;3.67;;;23.80;99.90;;;;;;5077328;28;20459;-68
2021/07/11 07:39:08;;;;;;;5.20;3.40;;;23.90;99.90;;;;;;5076751;28;20458;-68
2021/07/11 07:41:36;;;;;;;3.10;2.90;;;23.90;99.90;;;;;;5076776;28;20455;-68
2021/07/11 07:44:03;;;;;;;3.13;2.93;;;24.00;99.90;;;;;;5077043;28;20462;-68
2021/07/11 07:46:30;;;;;;;3.30;3.10;;;24.10;1.00;;;;;;5077164;28;20537;-68
2021/07/11 07:48:57;;;;;;;3.20;2.80;;;24.20;1.00;;;;;;5076538;28;20461;-68
2021/07/11 07:51:23;;;;;;;3.27;2.97;;;24.30;1.00;;;;;;5078170;28;20516;-67
2021/07/11 07:53:51;;;;;;;2.83;2.63;;;24.30;1.00;;;;;;5076721;28;20817;-67
2021/07/11 07:56:18;;;;;;;3.20;3.00;;;24.40;1.00;;;;;;5077057;28;20459;-67
2021/07/11 07:58:45;;;;;;;3.13;2.83;;;24.40;1.00;;;;;;5076658;28;20462;-66
2021/07/11 08:01:11;;;;;;;2.80;2.60;;;24.50;1.00;;;;;;5076718;28;20516;-67
2021/07/11 08:03:38;;;;;;;3.47;2.87;;;24.50;1.00;;;;;;5076635;28;20454;-67
2021/07/11 08:06:05;;;;;;;5.10;2.80;;;24.60;1.00;;;;;;5076360;28;20466;-67
2021/07/11 08:08:31;;;;;;;3.17;2.97;;;24.60;1.00;;;;;;5076785;28;20780;-67
2021/07/11 08:10:59;;;;;;;3.93;3.33;;;24.70;1.00;;;;;;5076305;28;20474;-68
2021/07/11 08:13:26;;;;;;;3.90;3.60;;;24.70;1.00;;;;;;5076769;28;20454;-68
2021/07/11 08:15:53;;;;;;;5.00;3.67;;;24.80;1.00;;;;;;5076674;28;20515;-68
2021/07/11 08:18:20;;;;;;;3.47;3.23;;;24.80;1.00;;;;;;5076220;28;20918;-67
2021/07/11 08:20:47;;;;;;;3.77;3.47;;;24.80;1.00;;;;;;5076491;28;20942;-67
2021/07/11 08:23:15;;;;;;;3.37;3.10;;;24.90;1.00;;;;;;5076077;28;20458;-67
2021/07/11 08:25:43;;;;;;;4.33;3.93;;;24.90;1.00;;;;;;5075943;28;20455;-68
2021/07/11 08:28:11;;;;;;;3.60;3.37;;;25.00;1.00;;;;;;5075858;28;20946;-68
2021/07/11 08:30:38;;;;;;;3.20;3.00;;;25.10;99.90;;;;;;5076038;28;20474;-68
2021/07/11 08:33:07;;;;;;;4.47;3.60;;;25.10;99.90;;;;;;5076001;28;20519;-68
2021/07/11 08:35:33;;;;;;;3.70;3.40;;;25.20;99.90;;;;;;5076266;28;20627;-67
2021/07/11 08:38:00;;;;;;;4.07;3.70;;;25.20;99.90;;;;;;5076154;28;20757;-67
2021/07/11 08:40:27;;;;;;;3.90;3.60;;;25.30;99.90;;;;;;5075652;28;20476;-67
2021/07/11 08:42:55;;;;;;;3.83;3.13;;;25.30;99.90;;;;;;5075653;28;20458;-67
2021/07/11 08:45:23;;;;;;;3.80;3.50;;;25.40;99.90;;;;;;5075470;28;20493;-67
2021/07/11 08:47:49;;;;;;;3.80;3.50;;;25.50;99.90;;;;;;5075339;28;20914;-66
2021/07/11 08:50:16;;;;;;;4.50;3.43;;;25.60;99.90;;;;;;5074734;28;20455;-66
2021/07/11 08:52:45;;;;;;;3.80;3.50;;;25.60;99.90;;;;;;5075625;28;20464;-68
2021/07/11 08:55:14;;;;;;;3.67;3.40;;;25.70;99.90;;;;;;5075660;28;20462;-66
2021/07/11 08:57:40;;;;;;;3.50;3.20;;;25.80;99.90;;;;;;5075721;28;20515;-67
2021/07/11 09:00:09;;;;;;;3.53;3.33;;;25.90;99.90;;;;;;5075142;28;20465;-67
2021/07/11 09:02:40;;;;;;;3.90;3.60;;;25.90;99.90;;;;;;5075867;28;20789;-67
2021/07/11 09:05:07;;;;;;;4.90;3.13;;;26.00;99.90;;;;;;5075835;28;20461;-69
2021/07/11 09:07:34;;;;;;;3.57;3.27;;;26.10;99.90;;;;;;5075490;28;20466;-67
2021/07/11 09:10:02;;;;;;;3.30;3.10;;;26.20;99.90;;;;;;5074966;28;20459;-67
2021/07/11 09:12:29;;;;;;;3.57;3.27;;;26.20;99.90;;;;;;5074948;28;20478;-67
2021/07/11 09:14:58;;;;;;;4.67;3.70;;;26.30;99.90;;;;;;5075355;28;20458;-67
2021/07/11 09:17:25;;;;;;;3.80;3.60;;;26.40;99.90;;;;;;5074782;28;20933;-67
2021/07/11 09:19:53;;;;;;;2.87;2.67;;;26.40;99.90;;;;;;5075167;28;20472;-67
2021/07/11 09:22:22;;;;;;;3.43;3.13;;;26.50;99.90;;;;;;5074970;28;20458;-67
2021/07/11 09:24:50;;;;;;;3.13;2.93;;;26.60;99.90;;;;;;5075437;28;20462;-68
2021/07/11 09:27:19;;;;;;;3.80;3.60;;;26.70;99.90;;;;;;5075179;28;20923;-67
2021/07/11 09:29:47;;;;;;;6.97;3.60;;;26.80;99.90;;;;;;5074775;28;20454;-68
2021/07/11 09:32:25;;;;;;;3.30;3.00;;;26.90;99.90;;;;;;5075171;28;20490;-68
2021/07/11 09:34:54;;;;;;;3.33;3.13;;;26.90;99.90;;;;;;5074834;28;20454;-68
2021/07/11 09:37:23;;;;;;;3.47;3.17;;;27.00;99.90;;;;;;5074966;28;20775;-68
2021/07/11 09:39:53;;;;;;;5.67;3.07;;;27.10;99.90;;;;;;5074982;28;20462;-68
2021/07/11 09:42:31;;;;;;;3.80;3.50;;;27.20;99.90;;;;;;5075020;28;20449;-68
2021/07/11 09:44:59;;;;;;;4.10;3.53;;;27.20;99.90;;;;;;5074693;28;20600;-68
2021/07/11 09:47:28;;;;;;;2.90;2.70;;;27.40;82.00;;;;;;5074880;28;20522;-68
2021/07/11 09:50:09;;;;;;;3.20;2.90;;;27.40;27.90;;;;;;5076359;28;20979;-68
2021/07/11 09:52:41;;;;;;;3.23;3.03;;;27.40;21.10;;;;;;5074625;28;20496;-68
2021/07/11 09:55:10;;;;;;;3.53;3.30;;;27.40;19.50;;;;;;5074383;28;20443;-68
2021/07/11 09:57:42;;;;;;;3.10;2.90;;;27.50;21.20;;;;;;5074783;28;20458;-68
2021/07/11 10:00:14;;;;;;;3.10;2.80;;;27.50;19.30;;;;;;5074599;28;20442;-68
2021/07/11 10:02:42;;;;;;;3.50;3.30;;;27.70;19.60;;;;;;5077836;28;20439;-68
2021/07/11 10:05:12;;;;;;;4.00;3.20;;;27.80;20.30;;;;;;5078628;28;20468;-68
2021/07/11 10:07:39;;;;;;;3.40;2.90;;;27.90;16.00;;;;;;5078663;28;20958;-68
2021/07/11 10:10:08;;;;;;;5.23;2.70;;;28.00;8.50;;;;;;5078797;28;20470;-68
2021/07/11 10:12:35;;;;;;;3.30;3.10;;;28.20;9.20;;;;;;5078674;28;20543;-68
2021/07/11 10:15:02;;;;;;;2.87;2.67;;;28.30;1.00;;;;;;5078249;28;20461;-68
2021/07/11 10:17:29;;;;;;;3.73;3.33;;;28.40;1.00;;;;;;5078792;28;20462;-68
2021/07/11 10:19:57;;;;;;;3.33;3.10;;;28.40;1.00;;;;;;5078388;28;20471;-68
2021/07/11 10:22:25;;;;;;;3.60;2.90;;;28.50;1.00;;;;;;5078316;28;20930;-68
2021/07/11 10:24:52;;;;;;;3.67;3.37;;;28.50;1.00;;;;;;5078640;28;20477;-69
2021/07/11 10:27:25;;;;;;;9.60;2.90;;;28.60;1.00;;;;;;5078662;28;20472;-68
2021/07/11 10:29:54;;;;;;;3.73;3.43;;;28.60;1.00;;;;;;5078367;28;20448;-68
2021/07/11 10:32:23;;;;;;;3.10;2.90;;;28.60;1.00;;;;;;5077661;28;20509;-68
2021/07/11 10:34:52;;;;;;;4.80;3.20;;;28.60;1.00;;;;;;5078323;28;20462;-68
2021/07/11 10:37:22;;;;;;;3.40;3.20;;;28.70;1.00;;;;;;5077710;28;20465;-68
2021/07/11 10:40:06;;;;;;;3.10;2.90;;;28.70;1.00;;;;;;5078377;28;20454;-69
2021/07/11 10:42:33;;;;;;;3.13;2.93;;;28.70;1.00;;;;;;5078085;28;20438;-68
2021/07/11 10:45:05;;;;;;;3.23;3.03;;;28.80;1.00;;;;;;5077559;28;20988;-68
2021/07/11 10:47:32;;;;;;;3.50;3.17;;;28.80;1.00;;;;;;5077970;28;20931;-67
2021/07/11 10:49:59;;;;;;;3.33;3.13;;;28.80;1.00;;;;;;5077484;28;20454;-68
2021/07/11 10:52:29;;;;;;;3.30;3.00;;;28.90;1.00;;;;;;5077767;28;20493;-68
2021/07/11 10:54:59;;;;;;;3.73;3.43;;;29.00;1.00;;;;;;5077958;28;20805;-68
2021/07/11 10:57:33;;;;;;;3.00;2.80;;;29.10;1.00;;;;;;5078094;28;20830;-68
2021/07/11 11:00:15;;;;;;;3.00;2.80;;;29.10;1.00;;;;;;5077536;28;20442;-68
2021/07/11 11:02:43;;;;;;;2.90;2.60;;;29.20;1.00;;;;;;5078496;28;20732;-67
2021/07/11 11:05:13;;;;;;;3.10;2.90;;;29.30;1.00;;;;;;5077529;28;20454;-67
2021/07/11 11:07:42;;;;;;;3.00;2.80;;;29.30;1.00;;;;;;5077424;28;20454;-67
2021/07/11 11:10:27;;;;;;;3.77;3.50;;;29.40;1.00;;;;;;5076871;28;20789;-67
2021/07/11 11:13:24;;;;;;;3.67;2.97;;;29.40;1.00;;;;;;5076565;28;20509;-67
2021/07/11 11:15:52;;;;;;;3.23;2.97;;;29.50;1.00;;;;;;5076448;28;20458;-67
2021/07/11 11:18:24;;;;;;;2.90;2.70;;;29.50;1.00;;;;;;5077403;28;20523;-67
2021/07/11 11:21:01;;;;;;;3.37;3.17;;;29.60;1.00;;;;;;5077134;28;20450;-67
2021/07/11 11:23:31;;;;;;;3.50;2.67;;;29.70;1.00;;;;;;5077822;28;20727;-67
2021/07/11 11:26:00;;;;;;;5.70;2.70;;;29.90;1.00;;;;;;5077345;28;20442;-67
2021/07/11 11:28:32;;;;;;;2.90;2.47;;;30.40;1.00;;;;;;5077065;28;20461;-67
2021/07/11 11:31:11;;;;;;;3.33;3.03;;;30.80;1.00;;;;;;5077087;28;20519;-67
2021/07/11 11:33:52;;;;;;;3.03;2.80;;;31.20;1.00;;;;;;5076809;28;20906;-67
2021/07/11 11:36:21;;;;;;;4.20;2.70;;;31.60;1.00;;;;;;5077065;28;20453;-68
2021/07/11 11:38:48;;;;;;;2.73;2.50;;;32.20;1.00;;;;;;5076900;28;20462;-68
2021/07/11 11:41:18;;;;;;;2.60;2.40;;;32.60;1.00;;;;;;5076850;28;20798;-67
2021/07/11 11:43:47;;;;;;;2.23;2.03;;;32.90;1.00;;;;;;5076878;28;20447;-67
2021/07/11 11:46:28;;;;;;;2.40;2.20;;;33.50;1.00;;;;;;5076651;28;20478;-67
2021/07/11 11:48:59;;;;;;;2.80;2.60;;;34.20;1.00;;;;;;5076803;28;20442;-67
2021/07/11 11:51:26;;;;;;;2.70;2.50;;;34.40;1.00;;;;;;5076495;28;20483;-67
2021/07/11 11:53:53;;;;;;;2.77;2.57;;;34.30;1.00;;;;;;5076884;28;20950;-67
2021/07/11 11:56:21;;;;;;;1.97;1.87;;;34.40;1.00;;;;;;5076722;28;20462;-69
2021/07/11 11:58:48;;;;;;;4.47;2.10;;;34.80;1.00;;;;;;5076861;28;20515;-67
2021/07/11 12:01:17;;;;;;;2.40;2.20;;;35.40;1.00;;;;;;5076634;28;20458;-68
2021/07/11 12:03:45;;;;;;;2.70;2.50;;;35.50;1.00;;;;;;5076595;28;20462;-68
2021/07/11 12:06:14;;;;;;;3.10;2.57;;;35.20;1.00;;;;;;5076356;28;20516;-68
2021/07/11 12:08:43;;;;;;;2.80;2.60;;;34.90;1.00;;;;;;5076678;28;20552;-68
2021/07/11 12:11:11;;;;;;;3.73;3.43;;;35.10;1.00;;;;;;5076328;28;20934;-67
2021/07/11 12:13:40;;;;;;;4.43;2.50;;;35.10;1.00;;;;;;5076789;28;20770;-67
2021/07/11 12:16:11;;;;;;;2.87;2.23;;;35.20;1.00;;;;;;5077190;28;20484;-68
2021/07/11 12:18:42;;;;;;;3.43;3.13;;;35.20;1.00;;;;;;5077424;28;20478;-68
2021/07/11 12:21:10;;;;;;;2.53;2.30;;;35.00;1.00;;;;;;5076442;28;20458;-68
2021/07/11 12:23:36;;;;;;;2.73;2.53;;;34.90;1.00;;;;;;5076324;28;20511;-67
2021/07/11 12:26:06;;;;;;;3.00;2.20;;;34.90;1.00;;;;;;5075276;28;20527;-67
2021/07/11 12:28:34;;;;;;;2.50;2.30;;;34.90;1.00;;;;;;5076604;28;20541;-67
2021/07/11 12:31:04;;;;;;;2.47;2.27;;;35.20;1.00;;;;;;5075568;28;20931;-67
2021/07/11 12:33:33;;;;;;;2.77;2.57;;;35.70;1.00;;;;;;5075656;28;20537;-68
2021/07/11 12:36:04;;;;;;;2.27;2.07;;;36.50;1.00;;;;;;5075749;28;20516;-68
2021/07/11 12:38:32;;;;;;;2.20;2.10;;;37.30;1.00;;;;;;5075962;28;20476;-67
2021/07/11 12:41:01;;;;;;;2.00;1.90;;;38.00;1.00;;;;;;5075427;28;20951;-68
2021/07/11 12:43:32;;;;;;;3.90;1.93;;;38.60;1.00;;;;;;5075563;28;20455;-67
2021/07/11 12:46:02;;;;;;;2.17;2.07;;;39.20;1.00;;;;;;5074941;28;20496;-67
2021/07/11 12:48:39;;;;;;;2.53;2.33;;;39.30;1.00;;;;;;5075212;28;20454;-67
2021/07/11 12:51:13;;;;;;;2.00;1.90;;;38.80;1.00;;;;;;5075228;28;20462;-67
2021/07/11 12:53:40;;;;;;;2.60;2.37;;;38.20;1.00;;;;;;5075899;28;20488;-67
2021/07/11 12:56:07;;;;;;;3.10;2.23;;;37.70;1.00;;;;;;5075575;28;20524;-67
2021/07/11 12:58:40;;;;;;;2.50;2.30;;;37.60;1.00;;;;;;5075268;28;20461;-67
2021/07/11 13:01:07;;;;;;;2.20;2.10;;;37.90;1.00;;;;;;5075486;28;20528;-67